Lake Worth, FL (33460)

4:27 PM EDT on July 29, 2016 (GMT -0400)
NOS_NWLON | | Change Station

Elev 0 ft 26.61 °N, 80.03 °W | Updated 1 hour ago

Thunderstorm
Thunderstorm
0.0 °F
Feels Like -18 °F
N
13.0
Wind Variable Wind from SE
Gusts 15.0 mph

Today
High -- | Low -- °F
--% Chance of Precip.
Yesterday
High -- | Low -- °F
Precip. -- in
Pressure 30.04 in
Visibility 10.0 miles
Clouds Scattered Clouds 3400 ft
Scattered Clouds 15000 ft
Mostly Cloudy 25000 ft
Windchill -18 °F
Dew Point Not available.
Humidity Not available.
Rainfall in
Snow Depth Not available.
6:43 AM 8:09 PM
Waning Crescent, 19% visible
METAR KPBI 291953Z 13009KT 10SM TS SCT034CB SCT150 BKN250 32/24 A3004 RMK AO2 TSB18 SLP173 OCNL LTGICCG W-NW TS W-NW MOV SW T03220239 $
Pressure 30.04 in
Visibility 10.0 miles
Clouds Scattered Clouds 3400 ft
Scattered Clouds 15000 ft
Mostly Cloudy 25000 ft
Windchill -18 °F
Dew Point Not available.
Humidity Not available.
Rainfall in
Snow Depth Not available.
6:43 AM 8:09 PM
Waning Crescent, 19% visible
METAR KPBI 291953Z 13009KT 10SM TS SCT034CB SCT150 BKN250 32/24 A3004 RMK AO2 TSB18 SLP173 OCNL LTGICCG W-NW TS W-NW MOV SW T03220239 $

10-Day Weather Forecast

Almanac

Astronomy

Jul. 29, 2016 Rise Set
Actual Time
Civil Twilight
Nautical Twilight
Astronomical Twilight
Moon
Length of Visible Light
Length of Day
Tomorrow will be .
, % of the Moon is Illuminated

Today's Extremes

State Highs State Lows

Community

WunderPhotos

Upload Photos

1,928,407 photos uploaded!

WunderBlog® & News

Nearby

Air Quality

  Air Quality AQ Index Pollutant
Not available.

Snow Depth

Station Depth Elevation

Earthquake Activity

City Distance Mag. Time & Date
Minimum magnitude displayed is 2.5.

Coastal Water Temperatures

Place Temperature

Stations

Nearby Weather Stations

Station Location Temp. Windchill Dew Point Humidity Wind Precip. Elev Updated Type
                   

Watches & Warnings

There are currently no watches in effect.